Oceana Nas /Apollo Soucek Field/ Station
KNTU : now visible

Airfield :











YOU CAN JOIN US ON...

 
LOGIN :

Register | Disclaimer

   EN    FR    IT 

 









Legend :    VFR   Marginal VFR   IFR   Intensive IFR   Very Intensive IFR
Visi :
Ceiling :
>= 8 km
>= 3000ft
5 to 8 km
1000 to 3000 ft
1500m to 5 km
500 to 1000 ft
800 to 1500m
200 to 500 ft
< 800m
< 200 ft
Symbols :   Thunderstorms  Fog  Heavy snow  Heavy precipitations  Wind > 20 kt






- Airport Elevation : 23 ft


KNTU - Oceana Nas /Apollo Soucek Field/ Station

CURRENT METAR :
  • 010056Z 07014G21KT 6SM -RA BR BKN011 BKN016 OVC050 08/07 A2974 RMK AO2 RAB09 SLP073 P0002 T00830067

EXPIRED METARs :
  • 312356Z 05013G19KT 10SM BKN011 OVC017 08/07 A2979 RMK AO2 RAE53 SLP091 P0000 60015 T00830072 10094 20078 55009
  • 312256Z 05014G19KT 5SM -RA BR BKN012 BKN060 OVC100 08/07 A2976 RMK AO2 PRESFR SLP081 P0002 T00830067

TAF TAF KNTU
Valid from the 31 at 23:00 until the 01 at 23:00 UTC


3123/0123 05010KT 9999 VCSH SCT010 BKN030 OVC070 640809 641705 540109 541005 QNH2969INS
TEMPO 3123/0101 3200 RA BR BKN010 OVC030
FM010100 05012G24KT 4800 -SHRA BR SCT008 OVC020 640809 641705 540109 541005 QNH2955INS
TEMPO 0101/0107 03018G28KT 1600 SHRA BR OVC005
FM010700 03025G40KT 4800 -SHRA BR BKN009 OVC015 640809 641705 540109 541005 QNH2950INS
TEMPO 0107/0113 1600 SHRA BR OVC005
FM011400 35020G34KT 9999 BKN025 OVC060 640809 641705 540109 541005 QNH2970INS T05/0110Z T12/0120Z FN20051



MET'MAP, your aeronautical weather chart ! - Copyright ORBIFLY December 2007 - Disclaimer

ORBIFLY MET'MAP TEAM :

Programming & Development : Alexandra Zaïnal
Concept & original design : Baudouin d'Aumeries
Assistance for programming : Marc-Olivier Méhu
Technical & hardware support : Manuel Goepfert

Contact : metmap@orbifly.com




SOURCES & CREDITS :

   NOAA       Earth
Advisory